sensor_id;sensor_type;location;lat;lon;timestamp;P1;durP1;ratioP1;P2;durP2;ratioP2
74383;SDS011;62824;52.994;-3.936;2023-06-04T00:00:43;5.03;;;2.65;;
74383;SDS011;62824;52.994;-3.936;2023-06-04T00:03:09;6.43;;;2.67;;
74383;SDS011;62824;52.994;-3.936;2023-06-04T00:05:35;3.78;;;2.22;;
74383;SDS011;62824;52.994;-3.936;2023-06-04T00:08:01;5.13;;;3.40;;
74383;SDS011;62824;52.994;-3.936;2023-06-04T00:10:26;5.32;;;2.28;;
74383;SDS011;62824;52.994;-3.936;2023-06-04T00:12:52;5.40;;;2.60;;
74383;SDS011;62824;52.994;-3.936;2023-06-04T00:15:18;5.82;;;2.47;;
74383;SDS011;62824;52.994;-3.936;2023-06-04T00:17:44;5.40;;;2.40;;
74383;SDS011;62824;52.994;-3.936;2023-06-04T00:20:10;5.05;;;2.90;;
74383;SDS011;62824;52.994;-3.936;2023-06-04T00:22:36;5.57;;;2.65;;
74383;SDS011;62824;52.994;-3.936;2023-06-04T00:25:02;7.25;;;2.63;;
74383;SDS011;62824;52.994;-3.936;2023-06-04T00:27:29;4.13;;;2.00;;
74383;SDS011;62824;52.994;-3.936;2023-06-04T00:29:54;4.72;;;2.40;;
74383;SDS011;62824;52.994;-3.936;2023-06-04T00:32:20;3.65;;;2.47;;
74383;SDS011;62824;52.994;-3.936;2023-06-04T00:34:53;5.28;;;2.00;;
74383;SDS011;62824;52.994;-3.936;2023-06-04T00:37:21;7.35;;;2.70;;
74383;SDS011;62824;52.994;-3.936;2023-06-04T00:39:47;6.40;;;2.42;;
74383;SDS011;62824;52.994;-3.936;2023-06-04T00:42:13;4.55;;;2.50;;
74383;SDS011;62824;52.994;-3.936;2023-06-04T00:44:39;4.50;;;2.30;;
74383;SDS011;62824;52.994;-3.936;2023-06-04T00:47:11;5.45;;;2.30;;
74383;SDS011;62824;52.994;-3.936;2023-06-04T00:49:37;5.32;;;2.38;;
74383;SDS011;62824;52.994;-3.936;2023-06-04T00:52:04;6.13;;;2.60;;
74383;SDS011;62824;52.994;-3.936;2023-06-04T00:54:30;5.15;;;2.08;;
74383;SDS011;62824;52.994;-3.936;2023-06-04T00:56:59;6.80;;;2.17;;
74383;SDS011;62824;52.994;-3.936;2023-06-04T00:59:24;6.75;;;2.10;;
74383;SDS011;62824;52.994;-3.936;2023-06-04T01:01:53;5.93;;;2.00;;
74383;SDS011;62824;52.994;-3.936;2023-06-04T01:07:18;4.05;;;1.60;;
74383;SDS011;62824;52.994;-3.936;2023-06-04T01:09:44;5.13;;;2.35;;
74383;SDS011;62824;52.994;-3.936;2023-06-04T01:12:10;9.00;;;2.63;;
74383;SDS011;62824;52.994;-3.936;2023-06-04T01:14:36;7.88;;;2.00;;
74383;SDS011;62824;52.994;-3.936;2023-06-04T01:17:06;8.05;;;2.00;;
74383;SDS011;62824;52.994;-3.936;2023-06-04T01:25:15;4.03;;;2.05;;
74383;SDS011;62824;52.994;-3.936;2023-06-04T01:27:51;5.50;;;2.20;;
74383;SDS011;62824;52.994;-3.936;2023-06-04T01:30:23;4.35;;;2.00;;
74383;SDS011;62824;52.994;-3.936;2023-06-04T01:33:17;4.93;;;2.28;;
74383;SDS011;62824;52.994;-3.936;2023-06-04T01:35:43;5.25;;;2.00;;
74383;SDS011;62824;52.994;-3.936;2023-06-04T01:38:10;5.63;;;2.22;;
74383;SDS011;62824;52.994;-3.936;2023-06-04T01:40:36;6.97;;;2.22;;
74383;SDS011;62824;52.994;-3.936;2023-06-04T01:43:02;6.00;;;2.10;;
74383;SDS011;62824;52.994;-3.936;2023-06-04T01:45:29;4.20;;;2.10;;
74383;SDS011;62824;52.994;-3.936;2023-06-04T01:47:55;5.07;;;2.10;;
74383;SDS011;62824;52.994;-3.936;2023-06-04T01:50:22;5.93;;;2.30;;
74383;SDS011;62824;52.994;-3.936;2023-06-04T01:52:48;6.13;;;2.15;;
74383;SDS011;62824;52.994;-3.936;2023-06-04T01:55:15;5.85;;;2.35;;
74383;SDS011;62824;52.994;-3.936;2023-06-04T01:57:42;4.18;;;2.33;;
74383;SDS011;62824;52.994;-3.936;2023-06-04T02:00:12;4.03;;;2.45;;
74383;SDS011;62824;52.994;-3.936;2023-06-04T02:02:40;6.35;;;2.70;;
74383;SDS011;62824;52.994;-3.936;2023-06-04T02:05:09;6.32;;;2.28;;
74383;SDS011;62824;52.994;-3.936;2023-06-04T02:07:39;5.57;;;2.60;;
74383;SDS011;62824;52.994;-3.936;2023-06-04T02:10:07;5.40;;;2.13;;
74383;SDS011;62824;52.994;-3.936;2023-06-04T02:12:52;4.05;;;2.20;;
74383;SDS011;62824;52.994;-3.936;2023-06-04T02:15:25;3.75;;;2.38;;
74383;SDS011;62824;52.994;-3.936;2023-06-04T02:17:56;4.88;;;2.75;;
74383;SDS011;62824;52.994;-3.936;2023-06-04T02:20:27;4.57;;;2.33;;
74383;SDS011;62824;52.994;-3.936;2023-06-04T02:22:53;4.88;;;2.38;;
74383;SDS011;62824;52.994;-3.936;2023-06-04T02:25:20;3.85;;;2.08;;
74383;SDS011;62824;52.994;-3.936;2023-06-04T02:27:46;4.75;;;2.00;;
74383;SDS011;62824;52.994;-3.936;2023-06-04T02:30:11;3.50;;;1.75;;
74383;SDS011;62824;52.994;-3.936;2023-06-04T02:32:37;4.45;;;1.83;;
74383;SDS011;62824;52.994;-3.936;2023-06-04T02:35:04;4.55;;;2.30;;
74383;SDS011;62824;52.994;-3.936;2023-06-04T02:37:30;5.13;;;2.45;;
74383;SDS011;62824;52.994;-3.936;2023-06-04T02:39:56;6.47;;;2.15;;
74383;SDS011;62824;52.994;-3.936;2023-06-04T02:42:21;6.18;;;2.13;;
74383;SDS011;62824;52.994;-3.936;2023-06-04T02:44:47;4.97;;;2.10;;
74383;SDS011;62824;52.994;-3.936;2023-06-04T02:47:13;4.18;;;2.05;;
74383;SDS011;62824;52.994;-3.936;2023-06-04T02:49:38;3.58;;;1.77;;
74383;SDS011;62824;52.994;-3.936;2023-06-04T02:52:04;4.85;;;2.35;;
74383;SDS011;62824;52.994;-3.936;2023-06-04T02:54:31;5.70;;;2.20;;
74383;SDS011;62824;52.994;-3.936;2023-06-04T02:56:56;3.70;;;1.77;;
74383;SDS011;62824;52.994;-3.936;2023-06-04T02:59:22;4.97;;;2.03;;
74383;SDS011;62824;52.994;-3.936;2023-06-04T03:01:48;7.75;;;2.05;;
74383;SDS011;62824;52.994;-3.936;2023-06-04T03:04:14;4.82;;;1.75;;
74383;SDS011;62824;52.994;-3.936;2023-06-04T03:06:40;5.80;;;2.10;;
74383;SDS011;62824;52.994;-3.936;2023-06-04T03:09:10;4.82;;;1.88;;
74383;SDS011;62824;52.994;-3.936;2023-06-04T03:11:36;4.15;;;1.80;;
74383;SDS011;62824;52.994;-3.936;2023-06-04T03:14:02;3.28;;;1.85;;
74383;SDS011;62824;52.994;-3.936;2023-06-04T03:16:28;4.30;;;2.10;;
74383;SDS011;62824;52.994;-3.936;2023-06-04T03:18:54;5.38;;;2.00;;
74383;SDS011;62824;52.994;-3.936;2023-06-04T03:21:20;4.28;;;2.00;;
74383;SDS011;62824;52.994;-3.936;2023-06-04T03:23:46;5.32;;;2.47;;
74383;SDS011;62824;52.994;-3.936;2023-06-04T03:26:11;4.63;;;2.13;;
74383;SDS011;62824;52.994;-3.936;2023-06-04T03:28:38;3.95;;;1.80;;
74383;SDS011;62824;52.994;-3.936;2023-06-04T03:31:03;6.15;;;2.00;;
74383;SDS011;62824;52.994;-3.936;2023-06-04T03:33:29;4.97;;;2.38;;
74383;SDS011;62824;52.994;-3.936;2023-06-04T03:35:55;5.75;;;2.00;;
74383;SDS011;62824;52.994;-3.936;2023-06-04T03:38:24;3.90;;;2.13;;
74383;SDS011;62824;52.994;-3.936;2023-06-04T03:40:50;3.90;;;2.20;;
74383;SDS011;62824;52.994;-3.936;2023-06-04T03:43:18;3.95;;;1.70;;
74383;SDS011;62824;52.994;-3.936;2023-06-04T03:45:44;4.30;;;1.90;;
74383;SDS011;62824;52.994;-3.936;2023-06-04T03:48:10;3.25;;;2.00;;
74383;SDS011;62824;52.994;-3.936;2023-06-04T03:50:36;4.00;;;2.05;;
74383;SDS011;62824;52.994;-3.936;2023-06-04T03:53:02;5.80;;;1.90;;
74383;SDS011;62824;52.994;-3.936;2023-06-04T03:55:30;4.25;;;1.98;;
74383;SDS011;62824;52.994;-3.936;2023-06-04T03:57:57;4.68;;;2.53;;
74383;SDS011;62824;52.994;-3.936;2023-06-04T04:00:23;5.53;;;1.90;;
74383;SDS011;62824;52.994;-3.936;2023-06-04T04:02:49;5.60;;;2.30;;
74383;SDS011;62824;52.994;-3.936;2023-06-04T04:05:15;3.47;;;1.70;;
74383;SDS011;62824;52.994;-3.936;2023-06-04T04:07:41;3.17;;;1.70;;
74383;SDS011;62824;52.994;-3.936;2023-06-04T04:10:07;3.45;;;1.70;;
74383;SDS011;62824;52.994;-3.936;2023-06-04T04:12:33;3.58;;;1.80;;
74383;SDS011;62824;52.994;-3.936;2023-06-04T04:14:58;4.32;;;2.40;;
74383;SDS011;62824;52.994;-3.936;2023-06-04T04:17:25;4.07;;;2.05;;
74383;SDS011;62824;52.994;-3.936;2023-06-04T04:19:51;5.20;;;2.03;;
74383;SDS011;62824;52.994;-3.936;2023-06-04T04:22:17;4.70;;;2.63;;
74383;SDS011;62824;52.994;-3.936;2023-06-04T04:24:43;2.42;;;1.55;;
74383;SDS011;62824;52.994;-3.936;2023-06-04T04:27:09;3.60;;;1.80;;
74383;SDS011;62824;52.994;-3.936;2023-06-04T04:29:38;4.97;;;2.00;;
74383;SDS011;62824;52.994;-3.936;2023-06-04T04:32:04;3.60;;;2.20;;
74383;SDS011;62824;52.994;-3.936;2023-06-04T04:34:37;4.13;;;2.05;;
74383;SDS011;62824;52.994;-3.936;2023-06-04T04:37:08;3.58;;;2.00;;
74383;SDS011;62824;52.994;-3.936;2023-06-04T04:39:34;5.28;;;2.35;;
74383;SDS011;62824;52.994;-3.936;2023-06-04T04:42:01;3.60;;;1.73;;
74383;SDS011;62824;52.994;-3.936;2023-06-04T04:44:27;2.58;;;1.85;;
74383;SDS011;62824;52.994;-3.936;2023-06-04T04:46:53;4.45;;;2.10;;
74383;SDS011;62824;52.994;-3.936;2023-06-04T04:49:19;2.80;;;1.77;;
74383;SDS011;62824;52.994;-3.936;2023-06-04T04:51:45;2.97;;;1.80;;
74383;SDS011;62824;52.994;-3.936;2023-06-04T04:54:11;5.97;;;2.15;;
74383;SDS011;62824;52.994;-3.936;2023-06-04T04:56:37;3.70;;;2.10;;
74383;SDS011;62824;52.994;-3.936;2023-06-04T04:59:03;3.55;;;1.95;;
74383;SDS011;62824;52.994;-3.936;2023-06-04T05:01:28;3.95;;;2.00;;
74383;SDS011;62824;52.994;-3.936;2023-06-04T05:03:54;4.68;;;2.17;;
74383;SDS011;62824;52.994;-3.936;2023-06-04T05:06:20;4.03;;;1.77;;
74383;SDS011;62824;52.994;-3.936;2023-06-04T05:08:47;5.03;;;2.38;;
74383;SDS011;62824;52.994;-3.936;2023-06-04T05:11:13;3.25;;;1.98;;
74383;SDS011;62824;52.994;-3.936;2023-06-04T05:13:39;3.20;;;1.85;;
74383;SDS011;62824;52.994;-3.936;2023-06-04T05:16:06;3.25;;;1.75;;
74383;SDS011;62824;52.994;-3.936;2023-06-04T05:18:33;3.33;;;2.10;;
74383;SDS011;62824;52.994;-3.936;2023-06-04T05:20:59;7.18;;;2.53;;
74383;SDS011;62824;52.994;-3.936;2023-06-04T05:23:27;2.88;;;1.65;;
74383;SDS011;62824;52.994;-3.936;2023-06-04T05:25:55;4.35;;;2.13;;
74383;SDS011;62824;52.994;-3.936;2023-06-04T05:28:21;3.10;;;2.00;;
74383;SDS011;62824;52.994;-3.936;2023-06-04T05:30:50;4.03;;;2.15;;
74383;SDS011;62824;52.994;-3.936;2023-06-04T05:33:17;5.53;;;2.25;;
74383;SDS011;62824;52.994;-3.936;2023-06-04T05:35:45;5.18;;;1.90;;
74383;SDS011;62824;52.994;-3.936;2023-06-04T05:38:14;3.53;;;1.90;;
74383;SDS011;62824;52.994;-3.936;2023-06-04T05:40:50;3.05;;;1.92;;
74383;SDS011;62824;52.994;-3.936;2023-06-04T05:43:17;4.43;;;2.10;;
74383;SDS011;62824;52.994;-3.936;2023-06-04T05:45:43;4.70;;;2.17;;
74383;SDS011;62824;52.994;-3.936;2023-06-04T05:48:09;6.25;;;2.40;;
74383;SDS011;62824;52.994;-3.936;2023-06-04T05:50:35;4.60;;;2.15;;
74383;SDS011;62824;52.994;-3.936;2023-06-04T05:53:00;6.05;;;2.33;;
74383;SDS011;62824;52.994;-3.936;2023-06-04T05:55:26;5.55;;;2.50;;
74383;SDS011;62824;52.994;-3.936;2023-06-04T05:57:53;4.10;;;2.13;;
74383;SDS011;62824;52.994;-3.936;2023-06-04T06:00:19;3.75;;;2.33;;
74383;SDS011;62824;52.994;-3.936;2023-06-04T06:02:46;4.13;;;2.15;;
74383;SDS011;62824;52.994;-3.936;2023-06-04T06:05:15;4.93;;;1.90;;
74383;SDS011;62824;52.994;-3.936;2023-06-04T06:07:42;3.45;;;2.25;;
74383;SDS011;62824;52.994;-3.936;2023-06-04T06:10:09;4.90;;;2.05;;
74383;SDS011;62824;52.994;-3.936;2023-06-04T06:12:35;3.42;;;2.10;;
74383;SDS011;62824;52.994;-3.936;2023-06-04T06:15:00;4.55;;;2.00;;
74383;SDS011;62824;52.994;-3.936;2023-06-04T06:17:27;3.53;;;2.30;;
74383;SDS011;62824;52.994;-3.936;2023-06-04T06:19:53;5.60;;;2.13;;
74383;SDS011;62824;52.994;-3.936;2023-06-04T06:22:20;5.47;;;2.13;;
74383;SDS011;62824;52.994;-3.936;2023-06-04T06:24:46;3.88;;;1.90;;
74383;SDS011;62824;52.994;-3.936;2023-06-04T06:27:14;3.63;;;2.10;;
74383;SDS011;62824;52.994;-3.936;2023-06-04T06:29:43;4.07;;;2.00;;
74383;SDS011;62824;52.994;-3.936;2023-06-04T06:32:10;4.20;;;2.20;;
74383;SDS011;62824;52.994;-3.936;2023-06-04T06:34:35;3.33;;;1.60;;
74383;SDS011;62824;52.994;-3.936;2023-06-04T06:37:03;2.67;;;1.70;;
74383;SDS011;62824;52.994;-3.936;2023-06-04T06:39:29;2.88;;;1.70;;
74383;SDS011;62824;52.994;-3.936;2023-06-04T06:41:55;3.13;;;1.63;;
74383;SDS011;62824;52.994;-3.936;2023-06-04T06:44:21;2.40;;;1.42;;
74383;SDS011;62824;52.994;-3.936;2023-06-04T06:46:47;2.88;;;1.45;;
74383;SDS011;62824;52.994;-3.936;2023-06-04T06:49:14;2.85;;;1.45;;
74383;SDS011;62824;52.994;-3.936;2023-06-04T06:51:40;2.80;;;1.70;;
74383;SDS011;62824;52.994;-3.936;2023-06-04T06:54:08;2.95;;;1.77;;
74383;SDS011;62824;52.994;-3.936;2023-06-04T06:56:34;3.10;;;1.33;;
74383;SDS011;62824;52.994;-3.936;2023-06-04T06:59:00;3.25;;;1.33;;
74383;SDS011;62824;52.994;-3.936;2023-06-04T07:01:25;2.63;;;1.38;;
74383;SDS011;62824;52.994;-3.936;2023-06-04T07:03:51;3.58;;;1.70;;
74383;SDS011;62824;52.994;-3.936;2023-06-04T07:06:17;2.80;;;1.75;;
74383;SDS011;62824;52.994;-3.936;2023-06-04T07:08:43;3.00;;;1.45;;
74383;SDS011;62824;52.994;-3.936;2023-06-04T07:11:09;2.90;;;1.20;;
74383;SDS011;62824;52.994;-3.936;2023-06-04T07:13:37;2.58;;;1.60;;
74383;SDS011;62824;52.994;-3.936;2023-06-04T07:16:04;3.38;;;1.58;;
74383;SDS011;62824;52.994;-3.936;2023-06-04T07:18:29;2.03;;;1.23;;
74383;SDS011;62824;52.994;-3.936;2023-06-04T07:20:55;4.72;;;1.70;;
74383;SDS011;62824;52.994;-3.936;2023-06-04T07:23:21;2.47;;;1.83;;
74383;SDS011;62824;52.994;-3.936;2023-06-04T07:25:47;4.82;;;1.50;;
74383;SDS011;62824;52.994;-3.936;2023-06-04T07:28:13;2.72;;;1.40;;
74383;SDS011;62824;52.994;-3.936;2023-06-04T07:30:38;2.40;;;1.50;;
74383;SDS011;62824;52.994;-3.936;2023-06-04T07:33:04;2.78;;;1.55;;
74383;SDS011;62824;52.994;-3.936;2023-06-04T07:35:31;4.15;;;1.50;;
74383;SDS011;62824;52.994;-3.936;2023-06-04T07:37:57;5.07;;;1.55;;
74383;SDS011;62824;52.994;-3.936;2023-06-04T07:40:23;2.90;;;1.50;;
74383;SDS011;62824;52.994;-3.936;2023-06-04T07:42:49;4.90;;;1.52;;
74383;SDS011;62824;52.994;-3.936;2023-06-04T07:45:15;2.42;;;1.42;;
74383;SDS011;62824;52.994;-3.936;2023-06-04T07:47:41;3.88;;;1.65;;
74383;SDS011;62824;52.994;-3.936;2023-06-04T07:50:07;2.80;;;1.38;;
74383;SDS011;62824;52.994;-3.936;2023-06-04T07:52:33;2.33;;;1.10;;
74383;SDS011;62824;52.994;-3.936;2023-06-04T07:55:00;2.25;;;1.35;;
74383;SDS011;62824;52.994;-3.936;2023-06-04T07:57:26;2.63;;;1.50;;
74383;SDS011;62824;52.994;-3.936;2023-06-04T07:59:52;3.35;;;1.58;;
74383;SDS011;62824;52.994;-3.936;2023-06-04T08:02:18;3.25;;;1.40;;
74383;SDS011;62824;52.994;-3.936;2023-06-04T08:04:44;2.10;;;1.30;;
74383;SDS011;62824;52.994;-3.936;2023-06-04T08:07:11;3.40;;;1.60;;
74383;SDS011;62824;52.994;-3.936;2023-06-04T08:09:38;3.13;;;1.80;;
74383;SDS011;62824;52.994;-3.936;2023-06-04T08:12:03;2.25;;;1.33;;
74383;SDS011;62824;52.994;-3.936;2023-06-04T08:14:29;3.75;;;1.33;;
74383;SDS011;62824;52.994;-3.936;2023-06-04T08:16:57;2.17;;;1.50;;
74383;SDS011;62824;52.994;-3.936;2023-06-04T08:19:22;2.97;;;1.30;;
74383;SDS011;62824;52.994;-3.936;2023-06-04T08:21:49;3.45;;;1.40;;
74383;SDS011;62824;52.994;-3.936;2023-06-04T08:24:15;2.55;;;1.50;;
74383;SDS011;62824;52.994;-3.936;2023-06-04T08:26:40;4.80;;;1.90;;
74383;SDS011;62824;52.994;-3.936;2023-06-04T08:29:07;2.17;;;1.33;;
74383;SDS011;62824;52.994;-3.936;2023-06-04T08:31:33;4.68;;;1.60;;
74383;SDS011;62824;52.994;-3.936;2023-06-04T08:33:59;4.65;;;1.80;;
74383;SDS011;62824;52.994;-3.936;2023-06-04T08:36:24;1.70;;;1.27;;
74383;SDS011;62824;52.994;-3.936;2023-06-04T08:38:52;3.17;;;1.88;;
74383;SDS011;62824;52.994;-3.936;2023-06-04T08:43:56;2.55;;;1.40;;
74383;SDS011;62824;52.994;-3.936;2023-06-04T08:46:23;3.05;;;1.67;;
74383;SDS011;62824;52.994;-3.936;2023-06-04T08:48:52;4.45;;;1.83;;
74383;SDS011;62824;52.994;-3.936;2023-06-04T08:51:21;8.17;;;1.90;;
74383;SDS011;62824;52.994;-3.936;2023-06-04T08:53:47;2.33;;;1.70;;
74383;SDS011;62824;52.994;-3.936;2023-06-04T08:56:17;1.98;;;1.42;;
74383;SDS011;62824;52.994;-3.936;2023-06-04T08:58:44;2.88;;;1.73;;
74383;SDS011;62824;52.994;-3.936;2023-06-04T09:01:12;7.57;;;2.50;;
74383;SDS011;62824;52.994;-3.936;2023-06-04T09:03:39;2.83;;;1.65;;
74383;SDS011;62824;52.994;-3.936;2023-06-04T09:06:06;2.95;;;1.60;;
74383;SDS011;62824;52.994;-3.936;2023-06-04T09:08:34;1.58;;;1.38;;
74383;SDS011;62824;52.994;-3.936;2023-06-04T09:11:05;3.50;;;1.70;;
74383;SDS011;62824;52.994;-3.936;2023-06-04T09:13:35;3.13;;;1.70;;
74383;SDS011;62824;52.994;-3.936;2023-06-04T09:16:04;5.60;;;1.90;;
74383;SDS011;62824;52.994;-3.936;2023-06-04T09:18:31;3.63;;;1.75;;
74383;SDS011;62824;52.994;-3.936;2023-06-04T09:21:04;2.45;;;1.42;;
74383;SDS011;62824;52.994;-3.936;2023-06-04T09:23:34;2.47;;;1.60;;
74383;SDS011;62824;52.994;-3.936;2023-06-04T09:26:10;4.15;;;1.60;;
74383;SDS011;62824;52.994;-3.936;2023-06-04T09:28:39;3.75;;;1.73;;
74383;SDS011;62824;52.994;-3.936;2023-06-04T09:31:10;3.58;;;1.70;;
74383;SDS011;62824;52.994;-3.936;2023-06-04T09:33:47;2.38;;;1.85;;
74383;SDS011;62824;52.994;-3.936;2023-06-04T09:36:14;2.38;;;1.50;;
74383;SDS011;62824;52.994;-3.936;2023-06-04T09:38:41;4.30;;;2.17;;
74383;SDS011;62824;52.994;-3.936;2023-06-04T09:41:13;3.03;;;1.65;;
74383;SDS011;62824;52.994;-3.936;2023-06-04T09:43:41;3.85;;;1.88;;
74383;SDS011;62824;52.994;-3.936;2023-06-04T09:46:16;3.22;;;1.83;;
74383;SDS011;62824;52.994;-3.936;2023-06-04T09:48:43;2.75;;;1.65;;
74383;SDS011;62824;52.994;-3.936;2023-06-04T09:51:10;3.08;;;1.63;;
74383;SDS011;62824;52.994;-3.936;2023-06-04T09:53:38;4.30;;;1.80;;
74383;SDS011;62824;52.994;-3.936;2023-06-04T09:56:05;6.93;;;4.35;;
74383;SDS011;62824;52.994;-3.936;2023-06-04T09:58:32;2.92;;;1.60;;
74383;SDS011;62824;52.994;-3.936;2023-06-04T10:00:59;2.47;;;1.70;;
74383;SDS011;62824;52.994;-3.936;2023-06-04T10:03:33;3.38;;;1.90;;
74383;SDS011;62824;52.994;-3.936;2023-06-04T10:06:01;4.28;;;2.10;;
74383;SDS011;62824;52.994;-3.936;2023-06-04T10:08:29;4.30;;;2.20;;
74383;SDS011;62824;52.994;-3.936;2023-06-04T10:10:57;3.33;;;2.05;;
74383;SDS011;62824;52.994;-3.936;2023-06-04T10:13:27;3.03;;;1.70;;
74383;SDS011;62824;52.994;-3.936;2023-06-04T10:15:58;4.38;;;2.75;;
74383;SDS011;62824;52.994;-3.936;2023-06-04T10:18:27;2.47;;;1.85;;
74383;SDS011;62824;52.994;-3.936;2023-06-04T10:20:56;3.40;;;1.80;;
74383;SDS011;62824;52.994;-3.936;2023-06-04T10:23:23;3.08;;;1.85;;
74383;SDS011;62824;52.994;-3.936;2023-06-04T10:25:50;5.22;;;1.90;;
74383;SDS011;62824;52.994;-3.936;2023-06-04T10:28:20;3.60;;;2.00;;
74383;SDS011;62824;52.994;-3.936;2023-06-04T10:30:47;2.92;;;1.85;;
74383;SDS011;62824;52.994;-3.936;2023-06-04T10:33:16;3.10;;;2.10;;
74383;SDS011;62824;52.994;-3.936;2023-06-04T10:35:49;3.67;;;2.00;;
74383;SDS011;62824;52.994;-3.936;2023-06-04T10:38:22;2.67;;;1.90;;
74383;SDS011;62824;52.994;-3.936;2023-06-04T10:40:49;3.20;;;2.00;;
74383;SDS011;62824;52.994;-3.936;2023-06-04T10:43:15;4.25;;;2.10;;
74383;SDS011;62824;52.994;-3.936;2023-06-04T10:45:41;3.05;;;1.70;;
74383;SDS011;62824;52.994;-3.936;2023-06-04T10:48:08;4.85;;;1.90;;
74383;SDS011;62824;52.994;-3.936;2023-06-04T10:50:47;3.42;;;2.30;;
74383;SDS011;62824;52.994;-3.936;2023-06-04T10:53:13;2.33;;;1.80;;
74383;SDS011;62824;52.994;-3.936;2023-06-04T10:55:43;3.58;;;1.70;;
74383;SDS011;62824;52.994;-3.936;2023-06-04T10:58:09;3.25;;;2.00;;
74383;SDS011;62824;52.994;-3.936;2023-06-04T11:00:39;2.92;;;2.17;;
74383;SDS011;62824;52.994;-3.936;2023-06-04T11:03:11;3.22;;;2.00;;
74383;SDS011;62824;52.994;-3.936;2023-06-04T11:05:38;4.40;;;2.10;;
74383;SDS011;62824;52.994;-3.936;2023-06-04T11:08:13;4.53;;;2.13;;
74383;SDS011;62824;52.994;-3.936;2023-06-04T11:10:40;4.75;;;2.15;;
74383;SDS011;62824;52.994;-3.936;2023-06-04T11:13:10;4.25;;;1.83;;
74383;SDS011;62824;52.994;-3.936;2023-06-04T11:18:08;2.55;;;1.70;;
74383;SDS011;62824;52.994;-3.936;2023-06-04T11:20:38;3.40;;;1.90;;
74383;SDS011;62824;52.994;-3.936;2023-06-04T11:23:04;3.28;;;1.90;;
74383;SDS011;62824;52.994;-3.936;2023-06-04T11:25:31;3.63;;;1.80;;
74383;SDS011;62824;52.994;-3.936;2023-06-04T11:27:58;3.20;;;1.83;;
74383;SDS011;62824;52.994;-3.936;2023-06-04T11:30:26;3.58;;;2.10;;
74383;SDS011;62824;52.994;-3.936;2023-06-04T11:33:10;4.90;;;1.92;;
74383;SDS011;62824;52.994;-3.936;2023-06-04T11:35:42;2.28;;;1.60;;
74383;SDS011;62824;52.994;-3.936;2023-06-04T11:38:08;3.42;;;2.17;;
74383;SDS011;62824;52.994;-3.936;2023-06-04T11:40:35;2.53;;;2.00;;
74383;SDS011;62824;52.994;-3.936;2023-06-04T11:43:01;3.20;;;1.70;;
74383;SDS011;62824;52.994;-3.936;2023-06-04T11:45:27;3.75;;;2.05;;
74383;SDS011;62824;52.994;-3.936;2023-06-04T11:47:55;3.63;;;2.28;;
74383;SDS011;62824;52.994;-3.936;2023-06-04T11:50:22;2.30;;;1.60;;
74383;SDS011;62824;52.994;-3.936;2023-06-04T11:52:52;3.70;;;2.20;;
74383;SDS011;62824;52.994;-3.936;2023-06-04T11:55:18;3.33;;;1.85;;
74383;SDS011;62824;52.994;-3.936;2023-06-04T11:57:48;3.30;;;2.22;;
74383;SDS011;62824;52.994;-3.936;2023-06-04T12:00:17;3.42;;;2.00;;
74383;SDS011;62824;52.994;-3.936;2023-06-04T12:02:51;2.90;;;2.15;;
74383;SDS011;62824;52.994;-3.936;2023-06-04T12:05:18;4.03;;;2.30;;
74383;SDS011;62824;52.994;-3.936;2023-06-04T12:07:45;3.95;;;2.05;;
74383;SDS011;62824;52.994;-3.936;2023-06-04T12:10:12;5.00;;;2.40;;
74383;SDS011;62824;52.994;-3.936;2023-06-04T12:12:38;2.75;;;1.90;;
74383;SDS011;62824;52.994;-3.936;2023-06-04T12:15:06;4.57;;;2.30;;
74383;SDS011;62824;52.994;-3.936;2023-06-04T12:17:34;5.03;;;2.30;;
74383;SDS011;62824;52.994;-3.936;2023-06-04T12:20:00;3.65;;;2.05;;
74383;SDS011;62824;52.994;-3.936;2023-06-04T12:22:26;3.10;;;2.13;;
74383;SDS011;62824;52.994;-3.936;2023-06-04T12:24:55;3.30;;;2.10;;
74383;SDS011;62824;52.994;-3.936;2023-06-04T12:27:23;3.42;;;2.13;;
74383;SDS011;62824;52.994;-3.936;2023-06-04T12:30:03;3.03;;;2.15;;
74383;SDS011;62824;52.994;-3.936;2023-06-04T12:32:35;2.63;;;2.00;;
74383;SDS011;62824;52.994;-3.936;2023-06-04T12:35:01;3.90;;;2.20;;
74383;SDS011;62824;52.994;-3.936;2023-06-04T12:37:27;4.30;;;2.30;;
74383;SDS011;62824;52.994;-3.936;2023-06-04T12:39:53;3.00;;;2.17;;
74383;SDS011;62824;52.994;-3.936;2023-06-04T12:42:20;3.53;;;2.20;;
74383;SDS011;62824;52.994;-3.936;2023-06-04T12:44:46;4.15;;;2.05;;
74383;SDS011;62824;52.994;-3.936;2023-06-04T12:47:12;2.53;;;2.15;;
74383;SDS011;62824;52.994;-3.936;2023-06-04T12:49:38;4.15;;;2.30;;
74383;SDS011;62824;52.994;-3.936;2023-06-04T12:52:03;2.75;;;2.25;;
74383;SDS011;62824;52.994;-3.936;2023-06-04T12:54:30;3.70;;;2.03;;
74383;SDS011;62824;52.994;-3.936;2023-06-04T12:56:56;3.00;;;2.25;;
74383;SDS011;62824;52.994;-3.936;2023-06-04T12:59:27;2.75;;;2.05;;
74383;SDS011;62824;52.994;-3.936;2023-06-04T13:01:56;3.03;;;2.40;;
74383;SDS011;62824;52.994;-3.936;2023-06-04T13:04:22;4.13;;;3.72;;
74383;SDS011;62824;52.994;-3.936;2023-06-04T13:06:48;5.13;;;3.75;;
74383;SDS011;62824;52.994;-3.936;2023-06-04T13:09:17;5.80;;;3.65;;
74383;SDS011;62824;52.994;-3.936;2023-06-04T13:11:44;2.80;;;2.13;;
74383;SDS011;62824;52.994;-3.936;2023-06-04T13:14:10;4.10;;;2.40;;
74383;SDS011;62824;52.994;-3.936;2023-06-04T13:16:39;3.30;;;2.40;;
74383;SDS011;62824;52.994;-3.936;2023-06-04T13:19:05;3.92;;;2.70;;
74383;SDS011;62824;52.994;-3.936;2023-06-04T13:21:32;3.55;;;2.40;;
74383;SDS011;62824;52.994;-3.936;2023-06-04T13:23:58;3.03;;;2.28;;
74383;SDS011;62824;52.994;-3.936;2023-06-04T13:26:24;4.07;;;2.88;;
74383;SDS011;62824;52.994;-3.936;2023-06-04T13:28:50;3.85;;;2.78;;
74383;SDS011;62824;52.994;-3.936;2023-06-04T13:31:16;3.70;;;2.47;;
74383;SDS011;62824;52.994;-3.936;2023-06-04T13:33:42;4.57;;;2.90;;
74383;SDS011;62824;52.994;-3.936;2023-06-04T13:36:08;5.88;;;3.08;;
74383;SDS011;62824;52.994;-3.936;2023-06-04T13:38:34;4.93;;;2.85;;
74383;SDS011;62824;52.994;-3.936;2023-06-04T13:41:00;3.22;;;2.38;;
74383;SDS011;62824;52.994;-3.936;2023-06-04T13:43:26;4.93;;;2.65;;
74383;SDS011;62824;52.994;-3.936;2023-06-04T13:45:52;3.83;;;2.72;;
74383;SDS011;62824;52.994;-3.936;2023-06-04T13:48:18;3.70;;;2.88;;
74383;SDS011;62824;52.994;-3.936;2023-06-04T13:50:44;3.70;;;2.95;;
74383;SDS011;62824;52.994;-3.936;2023-06-04T13:53:10;4.63;;;2.70;;
74383;SDS011;62824;52.994;-3.936;2023-06-04T13:55:36;4.78;;;2.88;;
74383;SDS011;62824;52.994;-3.936;2023-06-04T13:58:01;3.53;;;2.28;;
74383;SDS011;62824;52.994;-3.936;2023-06-04T14:00:27;4.03;;;2.70;;
74383;SDS011;62824;52.994;-3.936;2023-06-04T14:02:55;4.03;;;3.00;;
74383;SDS011;62824;52.994;-3.936;2023-06-04T14:05:21;3.53;;;2.72;;
74383;SDS011;62824;52.994;-3.936;2023-06-04T14:07:48;5.35;;;3.05;;
74383;SDS011;62824;52.994;-3.936;2023-06-04T14:10:14;7.25;;;3.03;;
74383;SDS011;62824;52.994;-3.936;2023-06-04T14:12:40;3.53;;;2.60;;
74383;SDS011;62824;52.994;-3.936;2023-06-04T14:15:06;4.28;;;2.92;;
74383;SDS011;62824;52.994;-3.936;2023-06-04T14:17:33;5.32;;;3.00;;
74383;SDS011;62824;52.994;-3.936;2023-06-04T14:20:00;3.70;;;2.78;;
74383;SDS011;62824;52.994;-3.936;2023-06-04T14:22:32;4.40;;;2.75;;
74383;SDS011;62824;52.994;-3.936;2023-06-04T14:25:05;3.78;;;2.70;;
74383;SDS011;62824;52.994;-3.936;2023-06-04T14:27:32;4.55;;;2.83;;
74383;SDS011;62824;52.994;-3.936;2023-06-04T14:29:58;3.83;;;2.70;;
74383;SDS011;62824;52.994;-3.936;2023-06-04T14:32:24;4.72;;;2.95;;
74383;SDS011;62824;52.994;-3.936;2023-06-04T14:34:49;5.30;;;3.03;;
74383;SDS011;62824;52.994;-3.936;2023-06-04T14:37:16;3.88;;;2.88;;
74383;SDS011;62824;52.994;-3.936;2023-06-04T14:39:41;5.38;;;3.17;;
74383;SDS011;62824;52.994;-3.936;2023-06-04T14:42:07;5.90;;;3.00;;
74383;SDS011;62824;52.994;-3.936;2023-06-04T14:44:33;5.55;;;2.97;;
74383;SDS011;62824;52.994;-3.936;2023-06-04T14:46:59;5.22;;;3.20;;